Time;durP1;ratioP1;P1;durP2;ratioP2;P2;SDS_P1;SDS_P2;PMS_P1;PMS_P2;Temp;Humidity;BMP_temperature;BMP_pressure;BME280_temperature;BME280_humidity;BME280_pressure;Samples;Min_cycle;Max_cycle;Signal;HPM_P1;HPM_P2
2022/12/10 00:08:55;;;;;;;;;;;-1.30;99.90;;;;;;6395819;22;19913;-82
2022/12/10 00:11:21;;;;;;;;;;;-1.30;99.90;;;;;;6374680;22;19914;-89
2022/12/10 00:13:47;;;;;;;;;;;-1.30;99.90;;;;;;6374690;22;19914;-86
2022/12/10 00:16:14;;;;;;;;;;;-1.30;99.90;;;;;;6401544;22;19948;-86
2022/12/10 00:18:40;;;;;;;;;;;-1.30;99.90;;;;;;6374744;22;19962;-94
2022/12/10 00:21:06;;;;;;;;;;;-1.40;99.90;;;;;;6375299;22;19918;-91
2022/12/10 00:23:33;;;;;;;;;;;-1.40;99.90;;;;;;6402234;22;19921;-85
2022/12/10 00:26:06;;;;;;;;;;;-1.40;99.90;;;;;;6374796;22;19994;-85
2022/12/10 00:28:32;;;;;;;;;;;-1.40;99.90;;;;;;6375093;22;19917;-90
2022/12/10 00:31:02;;;;;;;;;;;-1.40;99.90;;;;;;6348771;22;19921;-94
2022/12/10 00:33:40;;;;;;;;;;;-1.50;99.90;;;;;;6375345;22;19913;-93
2022/12/10 00:39:39;;;;;;;;;;;-1.50;99.90;;;;;;6413125;22;19983;-93
2022/12/10 00:42:24;;;;;;;;;;;-1.60;99.90;;;;;;6376169;22;19945;-93
2022/12/10 01:26:34;;;;;;;;;;;-1.80;99.90;;;;;;6408191;22;20310;-88
2022/12/10 01:29:00;;;;;;;;;;;-1.70;99.90;;;;;;6376578;22;20319;-91
2022/12/10 01:31:27;;;;;;;;;;;-1.70;99.90;;;;;;6376771;22;19945;-90
2022/12/10 01:33:53;;;;;;;;;;;-1.70;99.90;;;;;;6376759;22;19920;-90
2022/12/10 01:36:20;;;;;;;;;;;-1.60;99.90;;;;;;6376836;22;19914;-91
2022/12/10 01:38:46;;;;;;;;;;;-1.60;99.90;;;;;;6376917;22;19921;-89
2022/12/10 01:41:13;;;;;;;;;;;-1.50;99.90;;;;;;6374862;22;19913;-88
2022/12/10 01:43:59;;;;;;;;;;;-1.50;99.90;;;;;;6376739;22;19913;-89
2022/12/10 01:46:29;;;;;;;;;;;-1.50;99.90;;;;;;6376583;22;19921;-89
2022/12/10 01:48:54;;;;;;;;;;;-1.60;99.90;;;;;;6376666;22;19954;-89
2022/12/10 01:56:45;;;;;;;;;;;-1.80;99.90;;;;;;6340122;22;19914;-91
2022/12/10 01:59:14;;;;;;;;;;;-1.70;99.90;;;;;;6287098;22;19945;-93
2022/12/10 02:01:43;;;;;;;;;;;-1.80;99.90;;;;;;6286422;22;19985;-90
2022/12/10 02:04:30;;;;;;;;;;;-1.80;99.90;;;;;;6286628;22;19999;-92
2022/12/10 02:20:32;;;;;;;;;;;-1.70;99.90;;;;;;6312436;22;19945;-90
2022/12/10 02:23:21;;;;;;;;;;;-1.70;99.90;;;;;;6312671;22;19950;-91
2022/12/10 02:29:05;;;;;;;;;;;-1.70;99.90;;;;;;6249469;22;20315;-91
2022/12/10 02:31:38;;;;;;;;;;;-1.60;99.90;;;;;;6282134;22;19938;-90
2022/12/10 04:11:11;;;;;;;;;;;-1.80;99.90;;;;;;6396416;22;19945;-92
2022/12/10 04:16:28;;;;;;;;;;;-1.80;99.90;;;;;;6404028;22;19993;-92
2022/12/10 04:19:02;;;;;;;;;;;-1.80;99.90;;;;;;6376069;22;19995;-91
2022/12/10 04:27:11;;;;;;;;;;;-1.90;99.90;;;;;;6404696;22;20354;-90
2022/12/10 04:58:06;;;;;;;;;;;-2.10;99.90;;;;;;6371950;22;19914;-89
2022/12/10 05:00:32;;;;;;;;;;;-2.10;99.90;;;;;;6318626;22;19925;-89
2022/12/10 05:02:57;;;;;;;;;;;-2.20;99.90;;;;;;6318957;22;19954;-90
2022/12/10 05:05:23;;;;;;;;;;;-2.20;99.90;;;;;;6318430;22;19942;-90
2022/12/10 05:07:49;;;;;;;;;;;-2.20;99.90;;;;;;6318944;22;20247;-92
2022/12/10 05:10:14;;;;;;;;;;;-2.10;99.90;;;;;;6344670;22;19943;-90
2022/12/10 05:36:02;;;;;;;;;;;-1.80;99.90;;;;;;6375027;22;19918;-91
2022/12/10 06:40:58;;;;;;;;;;;-1.20;99.90;;;;;;6402067;22;19914;-90
2022/12/10 07:32:36;;;;;;;;;;;-1.40;99.90;;;;;;6340583;22;19923;-91
2022/12/10 08:08:42;;;;;;;;;;;-1.50;99.90;;;;;;6341073;22;20251;-93
2022/12/10 08:11:08;;;;;;;;;;;-1.60;99.90;;;;;;6287426;22;19982;-92
2022/12/10 08:13:36;;;;;;;;;;;-1.60;99.90;;;;;;6286316;22;19914;-90
2022/12/10 09:07:50;;;;;;;;;;;-1.50;99.90;;;;;;6370459;22;19918;-90
2022/12/10 09:10:16;;;;;;;;;;;-1.50;99.90;;;;;;6317968;22;19914;-91
2022/12/10 09:12:47;;;;;;;;;;;-1.40;99.90;;;;;;6318107;22;19988;-93
2022/12/10 09:44:27;;;;;;;;;;;-1.40;99.90;;;;;;6381807;22;19913;-94
2022/12/10 11:10:23;;;;;;;;;;;-0.90;99.90;;;;;;6349127;22;19992;-86
2022/12/10 11:12:56;;;;;;;;;;;-0.80;99.90;;;;;;6375267;22;19917;-88
2022/12/10 11:15:22;;;;;;;;;;;-0.80;99.90;;;;;;6401873;22;19918;-86
2022/12/10 11:17:52;;;;;;;;;;;-0.80;99.90;;;;;;6401644;22;19956;-87
2022/12/10 11:20:19;;;;;;;;;;;-0.80;99.90;;;;;;6374760;22;19958;-86
2022/12/10 11:22:58;;;;;;;;;;;-0.80;99.90;;;;;;6375251;22;19920;-87
2022/12/10 11:28:58;;;;;;;;;;;-0.70;99.90;;;;;;6402301;22;19914;-90
2022/12/10 11:31:48;;;;;;;;;;;-0.70;99.90;;;;;;6375741;22;19914;-89
2022/12/10 11:34:20;;;;;;;;;;;-0.60;99.90;;;;;;6402215;22;20284;-88
2022/12/10 11:36:52;;;;;;;;;;;-0.60;99.90;;;;;;6402012;22;19913;-89
2022/12/10 11:39:23;;;;;;;;;;;-0.60;99.90;;;;;;6402254;22;19914;-90
2022/12/10 11:42:11;;;;;;;;;;;-0.60;99.90;;;;;;6401873;22;20263;-89
2022/12/10 11:45:01;;;;;;;;;;;-0.60;99.90;;;;;;6374852;22;19980;-91
2022/12/10 11:47:26;;;;;;;;;;;-0.60;99.90;;;;;;6374396;22;19995;-93
2022/12/10 11:49:58;;;;;;;;;;;-0.60;99.90;;;;;;6375409;22;19914;-86
2022/12/10 11:52:27;;;;;;;;;;;-0.60;99.90;;;;;;6375698;22;19914;-91
2022/12/10 11:55:01;;;;;;;;;;;-0.60;99.90;;;;;;6373969;22;20281;-87
2022/12/10 11:57:35;;;;;;;;;;;-0.60;99.90;;;;;;6375377;22;19936;-88
2022/12/10 12:00:04;;;;;;;;;;;-0.50;99.90;;;;;;6374814;22;20367;-86
2022/12/10 12:02:32;;;;;;;;;;;-0.50;99.90;;;;;;6375352;22;19914;-87
2022/12/10 12:05:01;;;;;;;;;;;-0.50;99.90;;;;;;6403307;22;19917;-88
2022/12/10 12:07:56;;;;;;;;;;;-0.50;99.90;;;;;;6375382;22;19914;-87
2022/12/10 12:10:48;;;;;;;;;;;-0.50;99.90;;;;;;6376016;22;19913;-89
2022/12/10 12:13:17;;;;;;;;;;;-0.50;99.90;;;;;;6375342;22;19959;-88
2022/12/10 12:16:01;;;;;;;;;;;-0.60;99.90;;;;;;6374229;22;19914;-85
2022/12/10 12:18:45;;;;;;;;;;;-0.60;99.90;;;;;;6372084;22;20017;-85
2022/12/10 12:21:12;;;;;;;;;;;-0.60;99.90;;;;;;6400666;22;19913;-83
2022/12/10 12:23:38;;;;;;;;;;;-0.60;99.90;;;;;;6374392;22;19913;-84
2022/12/10 12:26:06;;;;;;;;;;;-0.60;99.90;;;;;;6374370;22;19920;-85
2022/12/10 12:28:34;;;;;;;;;;;-0.60;99.90;;;;;;6400934;22;19917;-86
2022/12/10 12:31:19;;;;;;;;;;;-0.60;99.90;;;;;;6401161;22;20294;-85
2022/12/10 12:34:22;;;;;;;;;;;-0.70;99.90;;;;;;6402160;22;19918;-93
2022/12/10 12:39:38;;;;;;;;;;;-0.70;99.90;;;;;;6371992;22;19975;-96
2022/12/10 13:08:16;;;;;;;;;;;-0.60;99.90;;;;;;6391612;22;19918;-89
2022/12/10 13:11:15;;;;;;;;;;;-0.60;99.90;;;;;;6378134;22;19937;-88
2022/12/10 13:14:00;;;;;;;;;;;-0.50;99.90;;;;;;6378627;22;19913;-87
2022/12/10 13:16:38;;;;;;;;;;;-0.50;99.90;;;;;;6376997;22;19945;-86
2022/12/10 13:19:16;;;;;;;;;;;-0.40;99.90;;;;;;6378245;22;19959;-88
2022/12/10 13:21:51;;;;;;;;;;;-0.40;99.90;;;;;;6405037;22;19914;-92
2022/12/10 13:24:35;;;;;;;;;;;-0.40;99.90;;;;;;6403492;22;19914;-95
2022/12/10 13:30:23;;;;;;;;;;;-0.30;99.90;;;;;;6404848;22;19945;-92
2022/12/10 13:32:52;;;;;;;;;;;-0.30;99.90;;;;;;6377426;22;19960;-90
2022/12/10 13:35:27;;;;;;;;;;;-0.30;99.90;;;;;;6375239;22;19978;-90
2022/12/10 13:37:55;;;;;;;;;;;-0.30;99.90;;;;;;6377232;22;19958;-88
2022/12/10 13:40:25;;;;;;;;;;;-0.30;99.90;;;;;;6376987;22;19993;-89
2022/12/10 13:46:13;;;;;;;;;;;-0.30;99.90;;;;;;6402541;22;19914;-91
2022/12/10 13:48:40;;;;;;;;;;;-0.30;99.90;;;;;;6401819;22;20326;-94
2022/12/10 13:51:06;;;;;;;;;;;-0.30;99.90;;;;;;6376658;22;19914;-88
2022/12/10 13:53:38;;;;;;;;;;;-0.30;99.90;;;;;;6376428;22;19917;-87
2022/12/10 13:56:13;;;;;;;;;;;-0.30;99.90;;;;;;6376540;22;19959;-88
2022/12/10 14:01:35;;;;;;;;;;;-0.30;99.90;;;;;;6340428;22;19921;-87
2022/12/10 14:04:27;;;;;;;;;;;-0.30;99.90;;;;;;6287055;22;19942;-86
2022/12/10 14:06:52;;;;;;;;;;;-0.30;99.90;;;;;;6278038;22;19993;-86
2022/12/10 14:09:24;;;;;;;;;;;-0.30;99.90;;;;;;6287416;22;19915;-87
2022/12/10 14:12:05;;;;;;;;;;;-0.30;99.90;;;;;;6311234;22;20331;-89
2022/12/10 14:14:36;;;;;;;;;;;-0.30;99.90;;;;;;6285015;22;19915;-87
2022/12/10 14:17:06;;;;;;;;;;;-0.40;99.90;;;;;;6287017;22;19921;-88
2022/12/10 14:19:33;;;;;;;;;;;-0.40;99.90;;;;;;6312806;22;20343;-86
2022/12/10 14:22:03;;;;;;;;;;;-0.40;99.90;;;;;;6287365;22;19918;-89
2022/12/10 14:24:37;;;;;;;;;;;-0.40;99.90;;;;;;6313093;22;19922;-87
2022/12/10 14:27:23;;;;;;;;;;;-0.40;99.90;;;;;;6287110;22;19914;-86
2022/12/10 14:29:50;;;;;;;;;;;-0.40;99.90;;;;;;6312492;22;19915;-87
2022/12/10 14:32:17;;;;;;;;;;;-0.40;99.90;;;;;;6286793;22;19918;-87
2022/12/10 14:34:46;;;;;;;;;;;-0.40;99.90;;;;;;6286286;22;20228;-86
2022/12/10 14:37:13;;;;;;;;;;;-0.40;99.90;;;;;;6286931;22;19922;-89
2022/12/10 14:39:39;;;;;;;;;;;-0.40;99.90;;;;;;6261887;22;19941;-89
2022/12/10 14:42:29;;;;;;;;;;;-0.40;99.90;;;;;;6287303;22;19920;-89
2022/12/10 14:45:16;;;;;;;;;;;-0.30;99.90;;;;;;6287273;22;19914;-87
2022/12/10 14:47:59;;;;;;;;;;;-0.30;99.90;;;;;;6313552;22;19914;-90
2022/12/10 14:50:27;;;;;;;;;;;-0.30;99.90;;;;;;6313137;22;19993;-90
2022/12/10 14:52:53;;;;;;;;;;;-0.30;99.90;;;;;;6312758;22;19993;-88
2022/12/10 14:55:21;;;;;;;;;;;-0.30;99.90;;;;;;6286989;22;19953;-91
2022/12/10 14:58:05;;;;;;;;;;;-0.30;99.90;;;;;;6286707;22;19922;-90
2022/12/10 15:00:31;;;;;;;;;;;-0.30;99.90;;;;;;6311895;22;19914;-90
2022/12/10 15:03:15;;;;;;;;;;;-0.30;99.90;;;;;;6286873;22;19918;-89
2022/12/10 15:05:41;;;;;;;;;;;-0.20;99.90;;;;;;6310398;22;19922;-87
2022/12/10 15:08:13;;;;;;;;;;;-0.20;99.90;;;;;;6284254;22;19922;-87
2022/12/10 15:10:40;;;;;;;;;;;-0.20;99.90;;;;;;6312315;22;19921;-89
2022/12/10 15:13:06;;;;;;;;;;;-0.20;99.90;;;;;;6286759;22;19922;-89
2022/12/10 15:15:39;;;;;;;;;;;-0.20;99.90;;;;;;6284810;22;19941;-89
2022/12/10 15:18:07;;;;;;;;;;;-0.20;99.90;;;;;;6284073;22;19914;-92
2022/12/10 15:20:49;;;;;;;;;;;-0.20;99.90;;;;;;6285379;22;20216;-91
2022/12/10 15:23:40;;;;;;;;;;;-0.20;99.90;;;;;;6288011;22;19915;-92
2022/12/10 15:26:12;;;;;;;;;;;-0.20;99.90;;;;;;6312530;22;19950;-89
2022/12/10 15:28:38;;;;;;;;;;;-0.20;99.90;;;;;;6286869;22;19914;-89
2022/12/10 15:31:22;;;;;;;;;;;-0.20;99.90;;;;;;6287105;22;19921;-90
2022/12/10 16:05:17;;;;;;;;;;;-0.20;99.90;;;;;;6404849;22;19914;-90
2022/12/10 16:10:26;;;;;;;;;;;-0.30;99.90;;;;;;6367402;22;19921;-88
2022/12/10 16:13:03;;;;;;;;;;;-0.20;99.90;;;;;;6317856;22;19946;-88
2022/12/10 16:15:36;;;;;;;;;;;-0.30;99.90;;;;;;6343873;22;19940;-89
2022/12/10 16:18:03;;;;;;;;;;;-0.30;99.90;;;;;;6317620;22;20354;-88
2022/12/10 16:20:31;;;;;;;;;;;-0.20;99.90;;;;;;6317924;22;19910;-89
2022/12/10 16:22:58;;;;;;;;;;;-0.30;99.90;;;;;;6317874;22;19921;-91
2022/12/10 16:25:25;;;;;;;;;;;-0.30;99.90;;;;;;6317521;22;19910;-91
2022/12/10 16:27:51;;;;;;;;;;;-0.30;99.90;;;;;;6318337;22;19914;-91
2022/12/10 16:30:45;;;;;;;;;;;-0.30;99.90;;;;;;6319594;22;19917;-90
2022/12/10 16:33:11;;;;;;;;;;;-0.30;99.90;;;;;;6319760;22;20224;-89
2022/12/10 16:35:36;;;;;;;;;;;-0.30;99.90;;;;;;6319133;22;20343;-90
2022/12/10 16:38:02;;;;;;;;;;;-0.30;99.90;;;;;;6319355;22;19925;-88
2022/12/10 16:40:28;;;;;;;;;;;-0.30;99.90;;;;;;6318984;22;19914;-90
2022/12/10 16:42:54;;;;;;;;;;;-0.40;99.90;;;;;;6319177;22;19946;-89
2022/12/10 16:49:07;;;;;;;;;;;-0.40;99.90;;;;;;6373475;22;19913;-90
2022/12/10 16:51:32;;;;;;;;;;;-0.40;99.90;;;;;;6319531;22;20285;-88
2022/12/10 16:53:58;;;;;;;;;;;-0.40;99.90;;;;;;6319055;22;19914;-94
2022/12/10 16:56:24;;;;;;;;;;;-0.40;99.90;;;;;;6319437;22;19914;-90
2022/12/10 16:59:08;;;;;;;;;;;-0.40;99.90;;;;;;6319447;22;20019;-89
2022/12/10 17:01:34;;;;;;;;;;;-0.40;99.90;;;;;;6318919;22;19921;-91
2022/12/10 17:04:00;;;;;;;;;;;-0.40;99.90;;;;;;6319550;22;19993;-89
2022/12/10 17:06:26;;;;;;;;;;;-0.40;99.90;;;;;;6319144;22;19949;-89
2022/12/10 17:08:52;;;;;;;;;;;-0.40;99.90;;;;;;6318911;22;19918;-90
2022/12/10 17:14:05;;;;;;;;;;;-0.40;99.90;;;;;;6313559;22;20316;-92
2022/12/10 17:16:31;;;;;;;;;;;-0.30;99.90;;;;;;6287407;22;20430;-88
2022/12/10 17:18:56;;;;;;;;;;;-0.40;99.90;;;;;;6287850;22;19948;-90
2022/12/10 17:21:22;;;;;;;;;;;-0.30;99.90;;;;;;6314662;22;19918;-89
2022/12/10 17:23:48;;;;;;;;;;;-0.40;99.90;;;;;;6287274;22;19915;-89
2022/12/10 17:26:33;;;;;;;;;;;-0.30;99.90;;;;;;6288810;22;19914;-89
2022/12/10 17:29:20;;;;;;;;;;;-0.30;99.90;;;;;;6313362;22;20320;-89
2022/12/10 17:31:46;;;;;;;;;;;-0.30;99.90;;;;;;6313317;22;19922;-87
2022/12/10 17:34:12;;;;;;;;;;;-0.30;99.90;;;;;;6287496;22;19918;-89
2022/12/10 17:36:38;;;;;;;;;;;-0.30;99.90;;;;;;6288020;22;19971;-87
2022/12/10 17:39:04;;;;;;;;;;;-0.30;99.90;;;;;;6313179;22;19915;-87
2022/12/10 17:41:30;;;;;;;;;;;-0.30;99.90;;;;;;6287483;22;19993;-88
2022/12/10 17:43:56;;;;;;;;;;;-0.20;99.90;;;;;;6287666;22;19915;-90
2022/12/10 17:50:05;;;;;;;;;;;-0.20;99.90;;;;;;6341092;22;19992;-93
2022/12/10 17:52:31;;;;;;;;;;;-0.20;99.90;;;;;;6313649;22;19915;-89
2022/12/10 17:54:56;;;;;;;;;;;-0.20;99.90;;;;;;6287368;22;19975;-89
2022/12/10 17:57:24;;;;;;;;;;;-0.20;99.90;;;;;;6287510;22;20381;-88
2022/12/10 18:00:11;;;;;;;;;;;-0.30;99.90;;;;;;6287700;22;19917;-90
2022/12/10 18:02:37;;;;;;;;;;;-0.20;99.90;;;;;;6287190;22;20251;-89
2022/12/10 18:05:02;;;;;;;;;;;-0.30;99.90;;;;;;6287144;22;19910;-89
2022/12/10 18:07:28;;;;;;;;;;;-0.30;99.90;;;;;;6287222;22;19922;-89
2022/12/10 18:10:12;;;;;;;;;;;-0.30;99.90;;;;;;6287007;22;19910;-86
2022/12/10 18:12:38;;;;;;;;;;;-0.30;99.90;;;;;;6341686;22;19918;-90
2022/12/10 18:15:04;;;;;;;;;;;-0.30;99.90;;;;;;6344006;22;19914;-87
2022/12/10 18:17:29;;;;;;;;;;;-0.30;99.90;;;;;;6292396;22;20324;-88
2022/12/10 18:19:55;;;;;;;;;;;-0.30;99.90;;;;;;6317987;22;19912;-87
2022/12/10 18:22:21;;;;;;;;;;;-0.20;99.90;;;;;;6318342;22;20295;-90
2022/12/10 18:24:46;;;;;;;;;;;-0.30;99.90;;;;;;6344157;22;19992;-87
2022/12/10 18:27:28;;;;;;;;;;;-0.30;99.90;;;;;;6293536;22;19913;-89
2022/12/10 18:29:54;;;;;;;;;;;-0.30;99.90;;;;;;6318910;22;20247;-90
2022/12/10 18:32:19;;;;;;;;;;;-0.20;99.90;;;;;;6317341;22;20358;-90
2022/12/10 18:34:45;;;;;;;;;;;-0.30;99.90;;;;;;6317636;22;19914;-90
2022/12/10 18:37:11;;;;;;;;;;;-0.40;99.90;;;;;;6318065;22;19989;-89
2022/12/10 18:39:36;;;;;;;;;;;-0.40;99.90;;;;;;6318252;22;19956;-90
2022/12/10 18:42:02;;;;;;;;;;;-0.40;99.90;;;;;;6344354;22;19918;-88
2022/12/10 18:44:28;;;;;;;;;;;-0.40;99.90;;;;;;6318004;22;20331;-90
2022/12/10 18:46:55;;;;;;;;;;;-0.40;99.90;;;;;;6317984;22;19914;-88
2022/12/10 18:49:20;;;;;;;;;;;-0.40;99.90;;;;;;6317781;22;19997;-89
2022/12/10 18:51:46;;;;;;;;;;;-0.30;99.90;;;;;;6318001;22;19914;-90
2022/12/10 18:54:11;;;;;;;;;;;-0.40;99.90;;;;;;6318174;22;19918;-92
2022/12/10 18:56:52;;;;;;;;;;;-0.30;99.90;;;;;;6344308;22;20243;-88
2022/12/10 18:59:18;;;;;;;;;;;-0.30;99.90;;;;;;6317861;22;19914;-87
2022/12/10 19:01:44;;;;;;;;;;;-0.40;99.90;;;;;;6292108;22;19914;-87
2022/12/10 19:04:10;;;;;;;;;;;-0.30;99.90;;;;;;6344008;22;19910;-90
2022/12/10 19:06:37;;;;;;;;;;;-0.30;99.90;;;;;;6317842;22;19914;-90
2022/12/10 19:09:04;;;;;;;;;;;-0.30;99.90;;;;;;6291109;22;20388;-89
2022/12/10 19:18:45;;;;;;;;;;;-0.30;99.90;;;;;;6373257;22;20293;-90
2022/12/10 19:21:11;;;;;;;;;;;-0.30;99.90;;;;;;6319253;22;20355;-91
2022/12/10 19:23:36;;;;;;;;;;;-0.30;99.90;;;;;;6320110;22;19910;-96
2022/12/10 19:26:02;;;;;;;;;;;-0.20;99.90;;;;;;6318242;22;19925;-94
2022/12/10 19:28:28;;;;;;;;;;;-0.30;99.90;;;;;;6318828;22;19910;-94
2022/12/10 19:30:54;;;;;;;;;;;-0.30;99.90;;;;;;6318393;22;20350;-90
2022/12/10 19:33:19;;;;;;;;;;;-0.30;99.90;;;;;;6321523;22;19934;-90
2022/12/10 19:35:45;;;;;;;;;;;-0.30;99.90;;;;;;6330246;22;19999;-89
2022/12/10 19:38:11;;;;;;;;;;;-0.20;99.90;;;;;;6324177;22;19994;-91
2022/12/10 19:40:37;;;;;;;;;;;-0.30;99.90;;;;;;6322220;22;19914;-96
2022/12/10 19:43:03;;;;;;;;;;;-0.30;99.90;;;;;;6317897;22;19918;-96
2022/12/10 19:45:30;;;;;;;;;;;-0.30;99.90;;;;;;6317777;22;19968;-90
2022/12/10 19:48:14;;;;;;;;;;;-0.40;99.90;;;;;;6344903;22;19954;-92
2022/12/10 19:50:40;;;;;;;;;;;-0.40;99.90;;;;;;6345976;22;19985;-96
2022/12/10 19:53:06;;;;;;;;;;;-0.40;99.90;;;;;;6318206;22;19956;-90
2022/12/10 19:55:31;;;;;;;;;;;-0.40;99.90;;;;;;6318109;22;20002;-92
2022/12/10 19:58:25;;;;;;;;;;;-0.40;99.90;;;;;;6318123;22;19954;-93
2022/12/10 20:01:15;;;;;;;;;;;-0.40;99.90;;;;;;6345790;22;19953;-94
2022/12/10 20:03:44;;;;;;;;;;;-0.40;99.90;;;;;;6318535;22;19914;-91
2022/12/10 20:06:12;;;;;;;;;;;-0.40;99.90;;;;;;6317624;22;19921;-92
2022/12/10 20:08:38;;;;;;;;;;;-0.40;99.90;;;;;;6317507;22;20202;-92
2022/12/10 20:11:03;;;;;;;;;;;-0.40;99.90;;;;;;6317347;22;20253;-93
2022/12/10 20:13:29;;;;;;;;;;;-0.40;99.90;;;;;;6316132;22;19997;-92
2022/12/10 20:15:57;;;;;;;;;;;-0.40;99.90;;;;;;6316590;22;19922;-91
2022/12/10 20:18:23;;;;;;;;;;;-0.40;99.90;;;;;;6314314;22;19914;-92
2022/12/10 20:20:49;;;;;;;;;;;-0.40;99.90;;;;;;6317864;22;19960;-91
2022/12/10 20:23:14;;;;;;;;;;;-0.40;99.90;;;;;;6292216;22;20040;-91
2022/12/10 20:25:44;;;;;;;;;;;-0.30;99.90;;;;;;6317663;22;19910;-93
2022/12/10 20:28:12;;;;;;;;;;;-0.40;99.90;;;;;;6318222;22;20334;-93
2022/12/10 20:30:38;;;;;;;;;;;-0.30;99.90;;;;;;6317907;22;19910;-92
2022/12/10 20:33:28;;;;;;;;;;;-0.40;99.90;;;;;;6318462;22;19914;-90
2022/12/10 20:35:54;;;;;;;;;;;-0.30;99.90;;;;;;6317735;22;20336;-90
2022/12/10 20:38:19;;;;;;;;;;;-0.40;99.90;;;;;;6317680;22;19914;-90
2022/12/10 20:40:45;;;;;;;;;;;-0.40;99.90;;;;;;6291882;22;19925;-90
2022/12/10 20:46:49;;;;;;;;;;;-0.40;99.90;;;;;;6372747;22;19959;-88
2022/12/10 20:49:15;;;;;;;;;;;-0.40;99.90;;;;;;6352783;22;19914;-91
2022/12/10 20:51:41;;;;;;;;;;;-0.50;99.90;;;;;;6348657;22;19950;-92
2022/12/10 20:54:07;;;;;;;;;;;-0.50;99.90;;;;;;6317591;22;20338;-88
2022/12/10 20:56:33;;;;;;;;;;;-0.50;99.90;;;;;;6317682;22;19921;-88
2022/12/10 20:58:58;;;;;;;;;;;-0.50;99.90;;;;;;6343460;22;19914;-91
2022/12/10 21:06:35;;;;;;;;;;;-0.40;99.90;;;;;;6380782;22;19935;-95
2022/12/10 21:09:01;;;;;;;;;;;-0.40;99.90;;;;;;6323645;22;19950;-96
2022/12/10 21:11:27;;;;;;;;;;;-0.40;99.90;;;;;;6324601;22;19964;-94
2022/12/10 21:13:52;;;;;;;;;;;-0.40;99.90;;;;;;6358320;22;19914;-96
2022/12/10 21:23:02;;;;;;;;;;;-0.40;99.90;;;;;;6373157;22;19921;-87
2022/12/10 21:25:31;;;;;;;;;;;-0.40;99.90;;;;;;6319271;22;19914;-88
2022/12/10 21:27:57;;;;;;;;;;;-0.40;99.90;;;;;;6318977;22;20336;-88
2022/12/10 21:30:23;;;;;;;;;;;-0.40;99.90;;;;;;6317927;22;19921;-89
2022/12/10 21:32:48;;;;;;;;;;;-0.40;99.90;;;;;;6318790;22;19915;-88
2022/12/10 21:37:58;;;;;;;;;;;-0.40;99.90;;;;;;6390909;22;19921;-88
2022/12/10 21:40:24;;;;;;;;;;;-0.40;99.90;;;;;;6376756;22;19921;-88
2022/12/10 21:45:34;;;;;;;;;;;-0.50;99.90;;;;;;6402995;22;19966;-88
2022/12/10 21:48:00;;;;;;;;;;;-0.50;99.90;;;;;;6376484;22;19917;-87
2022/12/10 21:50:26;;;;;;;;;;;-0.50;99.90;;;;;;6376417;22;19992;-89
2022/12/10 21:52:52;;;;;;;;;;;-0.50;99.90;;;;;;6376363;22;19958;-87
2022/12/10 21:55:18;;;;;;;;;;;-0.50;99.90;;;;;;6376268;22;19996;-89
2022/12/10 21:57:43;;;;;;;;;;;-0.50;99.90;;;;;;6376463;22;19921;-89
2022/12/10 22:00:10;;;;;;;;;;;-0.50;99.90;;;;;;6403077;22;19914;-88
2022/12/10 22:02:36;;;;;;;;;;;-0.50;99.90;;;;;;6376415;22;19952;-88
2022/12/10 22:05:02;;;;;;;;;;;-0.50;99.90;;;;;;6376250;22;19921;-88
2022/12/10 22:07:28;;;;;;;;;;;-0.50;99.90;;;;;;6376168;22;20235;-89
2022/12/10 22:09:54;;;;;;;;;;;-0.50;99.90;;;;;;6376193;22;20232;-87
2022/12/10 22:12:20;;;;;;;;;;;-0.60;99.90;;;;;;6376604;22;19914;-90
2022/12/10 22:14:45;;;;;;;;;;;-0.50;99.90;;;;;;6376315;22;19914;-88
2022/12/10 22:17:11;;;;;;;;;;;-0.60;99.90;;;;;;6376385;22;19914;-88
2022/12/10 22:19:37;;;;;;;;;;;-0.50;99.90;;;;;;6376189;22;19921;-89
2022/12/10 22:22:02;;;;;;;;;;;-0.50;99.90;;;;;;6402973;22;19966;-89
2022/12/10 22:24:28;;;;;;;;;;;-0.60;99.90;;;;;;6376284;22;20319;-89
2022/12/10 22:26:54;;;;;;;;;;;-0.60;99.90;;;;;;6375997;22;20319;-89
2022/12/10 22:29:21;;;;;;;;;;;-0.50;99.90;;;;;;6402689;22;19994;-91
2022/12/10 22:31:47;;;;;;;;;;;-0.50;99.90;;;;;;6402561;22;19910;-89
2022/12/10 22:34:12;;;;;;;;;;;-0.50;99.90;;;;;;6375757;22;19913;-90
2022/12/10 22:36:38;;;;;;;;;;;-0.60;99.90;;;;;;6375984;22;19914;-89
2022/12/10 22:39:04;;;;;;;;;;;-0.60;99.90;;;;;;6375644;22;19978;-87
2022/12/10 22:41:29;;;;;;;;;;;-0.60;99.90;;;;;;6376040;22;20343;-90
2022/12/10 22:43:55;;;;;;;;;;;-0.60;99.90;;;;;;6376032;22;19921;-91
2022/12/10 22:46:21;;;;;;;;;;;-0.60;99.90;;;;;;6375821;22;19918;-92
2022/12/10 22:48:46;;;;;;;;;;;-0.70;99.90;;;;;;6375890;22;19925;-91
2022/12/10 22:51:12;;;;;;;;;;;-0.70;99.90;;;;;;6376135;22;19939;-92
2022/12/10 22:53:37;;;;;;;;;;;-0.70;99.90;;;;;;6375985;22;19913;-90
2022/12/10 22:56:04;;;;;;;;;;;-0.70;99.90;;;;;;6375910;22;19925;-89
2022/12/10 22:58:30;;;;;;;;;;;-0.70;99.90;;;;;;6375886;22;20228;-89
2022/12/10 23:00:56;;;;;;;;;;;-0.70;99.90;;;;;;6376015;22;19925;-89
2022/12/10 23:03:23;;;;;;;;;;;-0.70;99.90;;;;;;6375805;22;19918;-89
2022/12/10 23:05:49;;;;;;;;;;;-0.60;99.90;;;;;;6376223;22;19935;-89
2022/12/10 23:08:15;;;;;;;;;;;-0.70;99.90;;;;;;6376148;22;19914;-90
2022/12/10 23:10:41;;;;;;;;;;;-0.70;99.90;;;;;;6376017;22;19913;-90
2022/12/10 23:13:07;;;;;;;;;;;-0.70;99.90;;;;;;6376193;22;19963;-89
2022/12/10 23:15:33;;;;;;;;;;;-0.70;99.90;;;;;;6375900;22;19996;-90
2022/12/10 23:17:59;;;;;;;;;;;-0.70;99.90;;;;;;6349569;22;19914;-89
2022/12/10 23:20:24;;;;;;;;;;;-0.70;99.90;;;;;;6375627;22;19958;-91
2022/12/10 23:22:50;;;;;;;;;;;-0.70;99.90;;;;;;6375823;22;19920;-92
2022/12/10 23:25:16;;;;;;;;;;;-0.70;99.90;;;;;;6375486;22;19914;-91
2022/12/10 23:27:42;;;;;;;;;;;-0.70;99.90;;;;;;6349712;22;19920;-92
2022/12/10 23:30:08;;;;;;;;;;;-0.70;99.90;;;;;;6375733;22;19986;-91
2022/12/10 23:32:34;;;;;;;;;;;-0.70;99.90;;;;;;6375721;22;19914;-90
2022/12/10 23:34:59;;;;;;;;;;;-0.70;99.90;;;;;;6375623;22;19956;-91
2022/12/10 23:37:25;;;;;;;;;;;-0.70;99.90;;;;;;6374903;22;19962;-93
2022/12/10 23:39:54;;;;;;;;;;;-0.70;99.90;;;;;;6375197;22;20327;-92
2022/12/10 23:42:19;;;;;;;;;;;-0.80;99.90;;;;;;6375666;22;19981;-92
2022/12/10 23:44:45;;;;;;;;;;;-0.80;99.90;;;;;;6375587;22;20559;-92
2022/12/10 23:47:10;;;;;;;;;;;-0.70;99.90;;;;;;6375482;22;19989;-91
2022/12/10 23:49:36;;;;;;;;;;;-0.70;99.90;;;;;;6375846;22;19971;-90
2022/12/10 23:52:02;;;;;;;;;;;-0.70;99.90;;;;;;6375582;22;19959;-89
2022/12/10 23:54:28;;;;;;;;;;;-0.70;99.90;;;;;;6375357;22;19914;-89
2022/12/10 23:56:53;;;;;;;;;;;-0.70;99.90;;;;;;6375648;22;19951;-89
2022/12/10 23:59:19;;;;;;;;;;;-0.70;99.90;;;;;;6375285;22;19917;-90
